createdAt,value
2023-04-01T00:01:26.224Z,11.10
2023-04-01T00:03:53.014Z,11.00
2023-04-01T00:06:19.970Z,11.06
2023-04-01T00:08:47.578Z,11.31
2023-04-01T00:11:14.901Z,11.15
2023-04-01T00:13:42.144Z,11.21
2023-04-01T00:16:17.921Z,11.08
2023-04-01T00:18:48.387Z,11.05
2023-04-01T00:21:16.739Z,11.06
2023-04-01T00:23:43.382Z,11.27
2023-04-01T00:26:10.316Z,11.04
2023-04-01T00:28:38.166Z,11.00
2023-04-01T00:31:07.266Z,11.01
2023-04-01T00:33:33.901Z,11.01
2023-04-01T00:36:11.840Z,10.89
2023-04-01T00:38:39.266Z,11.02
2023-04-01T00:41:07.097Z,11.14
2023-04-01T00:43:34.362Z,10.89
2023-04-01T00:46:01.035Z,10.86
2023-04-01T00:48:32.858Z,10.96
2023-04-01T00:51:03.556Z,11.00
2023-04-01T00:53:32.734Z,10.95
2023-04-01T00:56:08.845Z,10.86
2023-04-01T00:58:40.894Z,10.99
2023-04-01T01:01:09.971Z,11.00
2023-04-01T01:03:37.352Z,10.95
2023-04-01T01:06:24.615Z,10.94
2023-04-01T01:09:13.112Z,10.93
2023-04-01T01:12:15.417Z,10.97
2023-04-01T01:14:44.837Z,10.67
2023-04-01T01:17:20.511Z,10.88
2023-04-01T01:20:26.116Z,10.96
2023-04-01T01:23:12.668Z,11.01
2023-04-01T01:25:46.557Z,11.01
2023-04-01T01:28:26.820Z,11.04
2023-04-01T01:31:15.952Z,10.95
2023-04-01T01:34:20.900Z,10.98
2023-04-01T01:36:51.819Z,10.90
2023-04-01T01:39:21.192Z,11.01
2023-04-01T01:41:50.315Z,10.86
2023-04-01T01:44:19.227Z,10.96
2023-04-01T01:46:46.561Z,10.97
2023-04-01T01:49:15.468Z,10.70
2023-04-01T01:51:44.002Z,10.59
2023-04-01T01:54:14.364Z,10.92
2023-04-01T01:56:44.735Z,10.58
2023-04-01T01:59:14.413Z,10.55
2023-04-01T02:01:45.383Z,10.71
2023-04-01T02:04:15.918Z,10.71
2023-04-01T02:06:56.727Z,10.89
2023-04-01T02:09:23.636Z,10.93
2023-04-01T02:11:54.161Z,10.86
2023-04-01T02:14:23.670Z,10.75
2023-04-01T02:16:56.529Z,10.66
2023-04-01T02:19:28.483Z,10.71
2023-04-01T02:22:00.495Z,10.70
2023-04-01T02:24:31.027Z,10.50
2023-04-01T02:26:57.817Z,10.77
2023-04-01T02:29:28.727Z,10.70
2023-04-01T02:31:55.968Z,10.68
2023-04-01T02:34:24.969Z,10.70
2023-04-01T02:36:52.350Z,10.49
2023-04-01T02:39:19.168Z,10.81
2023-04-01T02:41:46.956Z,10.91
2023-04-01T02:44:15.707Z,10.91
2023-04-01T02:46:43.475Z,10.73
2023-04-01T02:49:10.289Z,10.74
2023-04-01T02:51:37.018Z,10.72
2023-04-01T02:54:04.315Z,10.56
2023-04-01T02:56:31.237Z,10.65
2023-04-01T02:58:57.885Z,10.63
2023-04-01T03:01:24.575Z,10.73
2023-04-01T03:03:51.308Z,10.61
2023-04-01T03:06:18.759Z,10.73
2023-04-01T03:08:46.125Z,10.81
2023-04-01T03:11:13.724Z,10.67
2023-04-01T03:13:40.409Z,10.71
2023-04-01T03:16:07.630Z,10.74
2023-04-01T03:18:35.557Z,10.81
2023-04-01T03:21:23.412Z,10.84
2023-04-01T03:23:50.679Z,10.86
2023-04-01T03:26:17.600Z,10.61
2023-04-01T03:28:45.078Z,10.70
2023-04-01T03:31:12.821Z,10.64
2023-04-01T03:33:46.611Z,10.74
2023-04-01T03:36:13.790Z,10.78
2023-04-01T03:38:44.820Z,10.97
2023-04-01T03:41:16.577Z,10.70
2023-04-01T03:43:44.694Z,10.70
2023-04-01T03:46:12.110Z,10.80
2023-04-01T03:48:38.766Z,10.72
2023-04-01T03:51:09.268Z,10.50
2023-04-01T03:53:36.472Z,10.64
2023-04-01T03:56:09.472Z,10.63
2023-04-01T03:58:37.342Z,10.64
2023-04-01T04:01:15.359Z,10.61
2023-04-01T04:03:42.251Z,10.56
2023-04-01T04:06:12.511Z,10.61
2023-04-01T04:08:39.589Z,10.59
2023-04-01T04:11:06.214Z,10.43
2023-04-01T04:13:33.999Z,10.27
2023-04-01T04:16:01.833Z,10.41
2023-04-01T04:18:29.889Z,10.38
2023-04-01T04:20:56.755Z,10.50
2023-04-01T04:23:23.460Z,10.52
2023-04-01T04:26:00.672Z,10.58
2023-04-01T04:28:29.041Z,10.45
2023-04-01T04:30:58.422Z,10.51
2023-04-01T04:33:26.103Z,10.40
2023-04-01T04:35:56.972Z,10.53
2023-04-01T04:38:24.218Z,10.45
2023-04-01T04:40:51.010Z,10.53
2023-04-01T04:43:18.699Z,10.43
2023-04-01T04:45:45.600Z,10.46
2023-04-01T04:48:19.169Z,10.06
2023-04-01T04:50:50.258Z,10.36
2023-04-01T04:53:20.000Z,10.51
2023-04-01T04:55:48.733Z,10.56
2023-04-01T04:58:24.663Z,10.46
2023-04-01T05:00:51.389Z,10.58
2023-04-01T05:03:26.513Z,10.21
2023-04-01T05:05:54.600Z,10.38
2023-04-01T05:08:21.381Z,10.52
2023-04-01T05:10:48.102Z,10.43
2023-04-01T05:13:14.708Z,10.49
2023-04-01T05:15:42.740Z,10.25
2023-04-01T05:18:09.388Z,10.27
2023-04-01T05:20:36.137Z,10.49
2023-04-01T05:23:03.651Z,10.34
2023-04-01T05:25:30.590Z,10.61
2023-04-01T05:27:58.292Z,10.45
2023-04-01T05:30:24.979Z,10.54
2023-04-01T05:33:17.832Z,10.53
2023-04-01T05:35:44.444Z,10.47
2023-04-01T05:38:11.210Z,10.43
2023-04-01T05:40:37.821Z,10.65
2023-04-01T05:43:04.479Z,10.61
2023-04-01T05:45:31.873Z,10.60
2023-04-01T05:48:02.103Z,10.61
2023-04-01T05:50:32.888Z,10.61
2023-04-01T05:52:59.868Z,10.68
2023-04-01T05:55:26.755Z,10.71
2023-04-01T05:57:53.342Z,10.65
2023-04-01T06:00:21.065Z,10.70
2023-04-01T06:02:48.764Z,10.81
2023-04-01T06:05:24.096Z,10.53
2023-04-01T06:07:59.768Z,10.40
2023-04-01T06:10:39.134Z,10.65
2023-04-01T06:13:25.683Z,10.61
2023-04-01T06:16:05.841Z,10.55
2023-04-01T06:19:22.579Z,10.60
2023-04-01T06:22:19.722Z,10.68
2023-04-01T06:25:33.086Z,10.72
2023-04-01T06:28:38.326Z,10.82
2023-04-01T06:31:25.993Z,10.74
2023-04-01T06:34:23.134Z,10.69
2023-04-01T06:37:38.110Z,10.93
2023-04-01T06:40:12.767Z,11.02
2023-04-01T06:43:03.108Z,11.13
2023-04-01T06:46:03.617Z,10.92
2023-04-01T06:49:04.958Z,10.63
2023-04-01T06:52:02.479Z,10.65
2023-04-01T06:54:53.075Z,10.77
2023-04-01T06:57:50.207Z,10.87
2023-04-01T07:00:33.567Z,10.95
2023-04-01T07:03:25.742Z,10.95
2023-04-01T07:05:53.839Z,10.90
2023-04-01T07:08:27.820Z,10.97
2023-04-01T07:11:06.775Z,10.86
2023-04-01T07:14:14.640Z,10.97
2023-04-01T07:16:48.122Z,10.99
2023-04-01T07:19:25.845Z,11.05
2023-04-01T07:22:23.133Z,10.95
2023-04-01T07:25:26.179Z,11.08
2023-04-01T07:28:17.776Z,11.08
2023-04-01T07:31:04.107Z,11.14
2023-04-01T07:33:48.327Z,11.21
2023-04-01T07:36:33.715Z,11.32
2023-04-01T07:39:07.402Z,11.32
2023-04-01T07:41:55.851Z,11.20
2023-04-01T07:44:34.750Z,11.43
2023-04-01T07:47:33.721Z,11.54
2023-04-01T07:50:14.635Z,11.57
2023-04-01T07:53:13.932Z,11.58
2023-04-01T07:56:06.492Z,11.62
2023-04-01T07:58:42.796Z,11.57
2023-04-01T08:01:23.716Z,11.53
2023-04-01T08:04:06.107Z,11.54
2023-04-01T08:06:36.934Z,11.55
2023-04-01T08:09:15.958Z,11.53
2023-04-01T08:12:41.485Z,11.76
2023-04-01T08:15:39.459Z,11.64
2023-04-01T08:18:13.512Z,11.68
2023-04-01T08:20:46.039Z,11.81
2023-04-01T08:23:41.625Z,11.72
2023-04-01T08:26:25.426Z,11.86
2023-04-01T08:29:14.981Z,11.89
2023-04-01T08:32:04.331Z,11.99
2023-04-01T08:34:42.233Z,12.16
2023-04-01T08:37:23.036Z,11.84
2023-04-01T08:40:31.261Z,11.99
2023-04-01T08:43:22.856Z,12.16
2023-04-01T08:46:13.938Z,12.06
2023-04-01T08:48:49.640Z,12.17
2023-04-01T08:51:28.287Z,12.14
2023-04-01T08:53:58.015Z,12.37
2023-04-01T08:56:51.627Z,12.38
2023-04-01T08:59:38.161Z,12.07
2023-04-01T09:02:41.145Z,12.33
2023-04-01T09:05:59.820Z,12.54
2023-04-01T09:08:33.324Z,12.44
2023-04-01T09:11:21.788Z,12.34
2023-04-01T09:14:41.236Z,12.54
2023-04-01T09:17:19.215Z,12.39
2023-04-01T09:20:21.036Z,12.57
2023-04-01T09:22:50.812Z,12.66
2023-04-01T09:25:23.383Z,12.77
2023-04-01T09:28:09.161Z,12.75
2023-04-01T09:30:40.209Z,12.76
2023-04-01T09:33:55.841Z,13.01
2023-04-01T09:37:11.332Z,13.05
2023-04-01T09:39:53.230Z,13.05
2023-04-01T09:42:44.976Z,12.67
2023-04-01T09:45:41.903Z,12.80
2023-04-01T09:49:00.136Z,12.70
2023-04-01T09:51:40.259Z,12.76
2023-04-01T09:54:45.523Z,13.04
2023-04-01T09:57:18.772Z,13.02
2023-04-01T10:00:32.919Z,13.07
2023-04-01T10:03:33.031Z,12.97
2023-04-01T10:06:58.317Z,13.15
2023-04-01T10:09:43.798Z,13.20
2023-04-01T10:12:42.569Z,13.14
2023-04-01T10:15:36.210Z,12.81
2023-04-01T10:18:19.125Z,12.69
2023-04-01T10:21:18.880Z,12.91
2023-04-01T10:24:06.986Z,12.84
2023-04-01T10:26:39.987Z,12.62
2023-04-01T10:30:09.857Z,12.78
2023-04-01T10:33:00.702Z,12.91
2023-04-01T10:35:54.291Z,12.91
2023-04-01T10:38:39.880Z,13.06
2023-04-01T10:41:21.522Z,13.00
2023-04-01T10:44:32.883Z,13.18
2023-04-01T10:47:39.570Z,12.97
2023-04-01T10:50:28.073Z,12.94
2023-04-01T10:53:07.759Z,13.00
2023-04-01T10:56:24.908Z,12.99
2023-04-01T10:59:26.769Z,12.81
2023-04-01T11:02:25.704Z,12.99
2023-04-01T11:05:40.295Z,13.26
2023-04-01T11:08:22.394Z,13.46
2023-04-01T11:11:30.701Z,13.57
2023-04-01T11:14:21.301Z,13.86
2023-04-01T11:17:14.122Z,13.80
2023-04-01T11:20:18.147Z,13.92
2023-04-01T11:22:59.935Z,14.17
2023-04-01T11:25:51.653Z,14.07
2023-04-01T11:28:47.115Z,14.15
2023-04-01T11:31:27.457Z,14.09
2023-04-01T11:34:32.207Z,13.85
2023-04-01T11:37:26.335Z,13.96
2023-04-01T11:40:32.595Z,13.84
2023-04-01T11:43:37.570Z,13.70
2023-04-01T11:46:34.726Z,14.10
2023-04-01T11:49:09.363Z,14.08
2023-04-01T11:52:01.401Z,14.19
2023-04-01T11:54:55.970Z,14.22
2023-04-01T11:57:34.890Z,13.84
2023-04-01T12:00:32.204Z,14.08
2023-04-01T12:03:23.651Z,13.96
2023-04-01T12:06:18.000Z,14.32
2023-04-01T12:09:11.509Z,14.19
2023-04-01T12:12:12.373Z,13.99
2023-04-01T12:14:53.264Z,13.92
2023-04-01T12:17:37.914Z,13.70
2023-04-01T12:20:13.739Z,13.43
2023-04-01T12:23:14.378Z,13.43
2023-04-01T12:26:06.867Z,13.38
2023-04-01T12:28:43.001Z,13.61
2023-04-01T12:31:32.502Z,13.60
2023-04-01T12:34:23.595Z,13.48
2023-04-01T12:37:05.691Z,13.69
2023-04-01T12:39:44.010Z,13.67
2023-04-01T12:42:28.711Z,13.64
2023-04-01T12:45:04.367Z,13.50
2023-04-01T12:47:33.989Z,13.64
2023-04-01T12:50:17.159Z,13.80
2023-04-01T12:53:20.904Z,13.72
2023-04-01T12:55:51.717Z,13.82
2023-04-01T12:58:40.160Z,13.75
2023-04-01T13:01:48.526Z,13.86
2023-04-01T13:04:35.888Z,13.94
2023-04-01T13:07:27.384Z,13.99
2023-04-01T13:09:53.909Z,14.10
2023-04-01T13:12:32.658Z,14.21
2023-04-01T13:15:11.798Z,14.30
2023-04-01T13:18:08.291Z,14.30
2023-04-01T13:20:44.947Z,14.33
2023-04-01T13:23:35.923Z,14.15
2023-04-01T13:26:13.862Z,13.98
2023-04-01T13:29:07.669Z,14.12
2023-04-01T13:32:13.223Z,14.38
2023-04-01T13:35:06.413Z,14.33
2023-04-01T13:37:53.461Z,14.27
2023-04-01T13:40:23.066Z,14.24
2023-04-01T13:42:58.545Z,14.26
2023-04-01T13:45:36.328Z,14.07
2023-04-01T13:48:21.191Z,14.15
2023-04-01T13:50:50.670Z,14.22
2023-04-01T13:53:35.532Z,14.00
2023-04-01T13:56:39.388Z,14.19
2023-04-01T13:59:41.612Z,14.09
2023-04-01T14:02:32.877Z,13.98
2023-04-01T14:05:41.935Z,14.37
2023-04-01T14:08:28.611Z,14.45
2023-04-01T14:11:04.380Z,14.35
2023-04-01T14:14:04.814Z,14.87
2023-04-01T14:16:55.110Z,14.75
2023-04-01T14:19:40.524Z,14.44
2023-04-01T14:22:19.002Z,14.44
2023-04-01T14:25:07.145Z,14.61
2023-04-01T14:28:02.365Z,14.64
2023-04-01T14:30:46.186Z,14.59
2023-04-01T14:33:42.341Z,14.57
2023-04-01T14:36:31.463Z,14.58
2023-04-01T14:39:33.796Z,14.59
2023-04-01T14:42:21.052Z,14.46
2023-04-01T14:45:13.268Z,14.43
2023-04-01T14:48:12.062Z,14.53
2023-04-01T14:50:45.588Z,14.55
2023-04-01T14:53:24.369Z,14.61
2023-04-01T14:55:52.212Z,14.46
2023-04-01T14:58:22.839Z,14.53
2023-04-01T15:01:13.074Z,14.48
2023-04-01T15:03:58.073Z,14.52
2023-04-01T15:06:30.642Z,14.37
2023-04-01T15:09:21.903Z,14.44
2023-04-01T15:12:19.519Z,14.64
2023-04-01T15:15:18.579Z,14.79
2023-04-01T15:17:48.121Z,14.66
2023-04-01T15:20:27.406Z,14.80
2023-04-01T15:23:11.784Z,14.77
2023-04-01T15:25:38.432Z,14.59
2023-04-01T15:28:11.193Z,14.72
2023-04-01T15:30:57.754Z,14.76
2023-04-01T15:33:46.070Z,14.56
2023-04-01T15:36:31.056Z,14.18
2023-04-01T15:39:25.472Z,14.10
2023-04-01T15:42:18.521Z,14.07
2023-04-01T15:44:54.425Z,14.05
2023-04-01T15:47:27.393Z,13.99
2023-04-01T15:50:25.018Z,14.09
2023-04-01T15:53:02.530Z,13.83
2023-04-01T15:55:51.283Z,13.94
2023-04-01T15:58:25.152Z,14.19
2023-04-01T16:01:16.576Z,13.98
2023-04-01T16:03:43.243Z,13.98
2023-04-01T16:06:34.479Z,13.84
2023-04-01T16:09:12.752Z,13.88
2023-04-01T16:11:48.536Z,13.84
2023-04-01T16:14:27.073Z,13.43
2023-04-01T16:17:18.356Z,13.22
2023-04-01T16:19:56.860Z,12.93
2023-04-01T16:22:31.110Z,12.78
2023-04-01T16:25:07.480Z,12.81
2023-04-01T16:27:37.482Z,12.67
2023-04-01T16:30:28.825Z,12.73
2023-04-01T16:33:04.444Z,12.44
2023-04-01T16:35:49.478Z,12.53
2023-04-01T16:38:25.344Z,12.64
2023-04-01T16:41:03.999Z,12.57
2023-04-01T16:43:43.221Z,12.62
2023-04-01T16:46:29.786Z,12.63
2023-04-01T16:49:23.829Z,12.53
2023-04-01T16:52:11.808Z,12.70
2023-04-01T16:54:47.322Z,12.60
2023-04-01T16:57:29.039Z,12.38
2023-04-01T17:00:01.360Z,12.20
2023-04-01T17:02:36.690Z,12.40
2023-04-01T17:05:16.538Z,12.30
2023-04-01T17:08:02.667Z,12.39
2023-04-01T17:10:51.851Z,12.38
2023-04-01T17:13:47.150Z,12.19
2023-04-01T17:16:16.808Z,12.36
2023-04-01T17:19:02.168Z,12.28
2023-04-01T17:21:52.759Z,12.04
2023-04-01T17:24:37.631Z,11.78
2023-04-01T17:27:16.403Z,11.71
2023-04-01T17:30:11.712Z,11.78
2023-04-01T17:33:06.562Z,11.69
2023-04-01T17:35:40.408Z,11.83
2023-04-01T17:38:24.990Z,11.75
2023-04-01T17:41:02.492Z,11.46
2023-04-01T17:43:35.925Z,11.06
2023-04-01T17:46:08.541Z,10.81
2023-04-01T17:49:01.444Z,10.82
2023-04-01T17:51:31.018Z,10.87
2023-04-01T17:54:06.832Z,10.89
2023-04-01T17:56:55.839Z,10.64
2023-04-01T17:59:31.001Z,10.61
2023-04-01T18:02:19.074Z,10.57
2023-04-01T18:04:57.958Z,10.56
2023-04-01T18:07:58.943Z,10.50
2023-04-01T18:10:52.996Z,10.47
2023-04-01T18:13:37.700Z,10.44
2023-04-01T18:16:31.200Z,10.44
2023-04-01T18:19:01.003Z,10.43
2023-04-01T18:21:33.750Z,10.17
2023-04-01T18:24:12.258Z,10.18
2023-04-01T18:26:42.632Z,10.13
2023-04-01T18:29:23.125Z,10.18
2023-04-01T18:31:55.400Z,10.17
2023-04-01T18:34:45.470Z,10.14
2023-04-01T18:37:26.537Z,9.96
2023-04-01T18:40:16.340Z,10.03
2023-04-01T18:43:03.200Z,10.04
2023-04-01T18:45:47.961Z,9.92
2023-04-01T18:48:23.072Z,9.97
2023-04-01T18:50:58.829Z,9.90
2023-04-01T18:53:32.509Z,9.96
2023-04-01T18:56:03.618Z,10.23
2023-04-01T18:58:36.403Z,9.86
2023-04-01T19:01:03.212Z,9.81
2023-04-01T19:03:42.518Z,9.68
2023-04-01T19:06:20.815Z,9.65
2023-04-01T19:08:47.820Z,9.73
2023-04-01T19:11:33.230Z,9.75
2023-04-01T19:14:27.028Z,9.65
2023-04-01T19:17:18.738Z,9.60
2023-04-01T19:20:26.454Z,9.36
2023-04-01T19:23:22.432Z,9.34
2023-04-01T19:25:54.729Z,9.36
2023-04-01T19:28:34.985Z,9.14
2023-04-01T19:31:17.277Z,9.05
2023-04-01T19:34:05.841Z,9.12
2023-04-01T19:36:54.484Z,9.10
2023-04-01T19:39:51.765Z,9.10
2023-04-01T19:42:23.598Z,8.96
2023-04-01T19:45:05.955Z,9.01
2023-04-01T19:47:51.491Z,9.05
2023-04-01T19:50:40.489Z,8.78
2023-04-01T19:53:24.618Z,8.87
2023-04-01T19:56:13.065Z,8.74
2023-04-01T19:58:58.494Z,8.51
2023-04-01T20:02:02.630Z,8.68
2023-04-01T20:04:44.593Z,8.48
2023-04-01T20:07:17.184Z,8.55
2023-04-01T20:10:17.836Z,8.54
2023-04-01T20:13:01.726Z,8.15
2023-04-01T20:15:35.216Z,8.02
2023-04-01T20:18:07.083Z,8.21
2023-04-01T20:20:35.242Z,8.13
2023-04-01T20:23:36.004Z,8.09
2023-04-01T20:26:15.713Z,8.23
2023-04-01T20:28:57.001Z,8.16
2023-04-01T20:31:42.200Z,8.04
2023-04-01T20:34:27.632Z,7.85
2023-04-01T20:37:33.294Z,7.98
2023-04-01T20:40:31.254Z,7.88
2023-04-01T20:43:10.144Z,7.80
2023-04-01T20:45:48.991Z,7.79
2023-04-01T20:48:24.463Z,8.11
2023-04-01T20:50:51.296Z,7.95
2023-04-01T20:53:43.028Z,7.78
2023-04-01T20:56:17.450Z,7.85
2023-04-01T20:59:13.361Z,7.73
2023-04-01T21:01:46.169Z,7.62
2023-04-01T21:04:22.000Z,7.79
2023-04-01T21:07:09.962Z,7.78
2023-04-01T21:09:59.745Z,7.66
2023-04-01T21:12:35.393Z,7.76
2023-04-01T21:15:29.998Z,7.69
2023-04-01T21:18:02.456Z,7.47
2023-04-01T21:21:00.366Z,7.63
2023-04-01T21:23:59.139Z,7.79
2023-04-01T21:26:50.058Z,7.53
2023-04-01T21:29:26.336Z,7.70
2023-04-01T21:32:17.417Z,7.76
2023-04-01T21:34:53.090Z,7.74
2023-04-01T21:37:44.798Z,7.76
2023-04-01T21:40:49.002Z,7.40
2023-04-01T21:43:43.134Z,7.55
2023-04-01T21:46:42.563Z,7.70
2023-04-01T21:49:27.739Z,7.80
2023-04-01T21:52:23.223Z,7.50
2023-04-01T21:55:31.269Z,7.47
2023-04-01T21:58:25.432Z,7.32
2023-04-01T22:01:27.215Z,7.58
2023-04-01T22:04:31.687Z,7.45
2023-04-01T22:07:08.571Z,7.26
2023-04-01T22:10:12.845Z,7.19
2023-04-01T22:12:48.309Z,7.23
2023-04-01T22:15:46.040Z,7.30
2023-04-01T22:18:23.725Z,7.20
2023-04-01T22:21:24.585Z,7.14
2023-04-01T22:23:51.099Z,6.76
2023-04-01T22:26:28.124Z,7.06
2023-04-01T22:29:35.991Z,6.82
2023-04-01T22:32:17.417Z,6.84
2023-04-01T22:35:11.167Z,6.75
2023-04-01T22:38:00.185Z,6.74
2023-04-01T22:40:32.815Z,6.58
2023-04-01T22:43:07.442Z,6.41
2023-04-01T22:45:44.338Z,6.55
2023-04-01T22:48:39.457Z,6.56
2023-04-01T22:51:09.218Z,6.73
2023-04-01T22:53:51.252Z,6.73
2023-04-01T22:56:36.829Z,6.67
2023-04-01T22:59:16.030Z,6.55
2023-04-01T23:02:08.951Z,6.74
2023-04-01T23:04:40.827Z,6.77
2023-04-01T23:07:21.430Z,6.75
2023-04-01T23:09:49.799Z,6.89
2023-04-01T23:12:20.524Z,6.70
2023-04-01T23:14:59.322Z,6.69
2023-04-01T23:17:37.789Z,6.52
2023-04-01T23:20:55.916Z,6.56
2023-04-01T23:23:33.444Z,6.29
2023-04-01T23:26:14.783Z,6.13
2023-04-01T23:28:57.985Z,6.29
2023-04-01T23:31:36.111Z,6.11
2023-04-01T23:34:14.884Z,6.28
2023-04-01T23:36:44.970Z,6.19
2023-04-01T23:39:29.474Z,6.13
2023-04-01T23:42:00.967Z,6.03
2023-04-01T23:44:30.026Z,6.08
2023-04-01T23:46:59.886Z,6.04
2023-04-01T23:49:34.315Z,5.87
2023-04-01T23:52:09.757Z,6.28
2023-04-01T23:54:44.246Z,6.24
2023-04-01T23:57:18.765Z,6.31
